Time;durP1;ratioP1;P1;durP2;ratioP2;P2;SDS_P1;SDS_P2;PMS_P1;PMS_P2;Temp;Humidity;BMP_temperature;BMP_pressure;BME280_temperature;BME280_humidity;BME280_pressure;Samples;Min_cycle;Max_cycle;Signal;HPM_P1;HPM_P2
2022/12/31 00:01:25;;;;;;;1.58;0.80;;;21.30;65.50;;;;;;6147691;29;20055;-52
2022/12/31 00:04:26;;;;;;;2.78;0.80;;;21.40;65.50;;;;;;6149386;29;20047;-52
2022/12/31 00:07:28;;;;;;;2.63;0.90;;;21.30;65.40;;;;;;6151172;29;20044;-52
2022/12/31 00:10:30;;;;;;;1.60;0.55;;;21.30;65.40;;;;;;6151114;29;20047;-53
2022/12/31 00:13:31;;;;;;;1.45;0.60;;;21.30;65.40;;;;;;6153364;29;20143;-53
2022/12/31 00:16:35;;;;;;;2.55;0.68;;;21.30;65.40;;;;;;6151625;29;20051;-51
2022/12/31 00:19:37;;;;;;;2.13;0.60;;;21.30;65.40;;;;;;6152295;29;20031;-51
2022/12/31 00:22:38;;;;;;;;;;;21.20;65.30;;;;;;6154426;29;20059;-53
2022/12/31 00:25:40;;;;;;;2.05;1.02;;;21.30;65.40;;;;;;6153243;29;19923;-50
2022/12/31 00:28:42;;;;;;;1.13;0.52;;;21.30;65.30;;;;;;6150837;29;20047;-52
2022/12/31 00:31:44;;;;;;;1.63;0.50;;;21.20;65.30;;;;;;6149675;29;20103;-51
2022/12/31 00:34:45;;;;;;;1.65;0.40;;;21.20;65.30;;;;;;6151424;29;20047;-49
2022/12/31 00:37:47;;;;;;;0.85;0.30;;;21.30;65.40;;;;;;6153151;29;20055;-51
2022/12/31 00:40:49;;;;;;;0.98;0.50;;;21.30;65.40;;;;;;6149868;29;20094;-52
2022/12/31 00:43:50;;;;;;;0.73;0.40;;;21.30;65.40;;;;;;6149852;29;20060;-52
2022/12/31 00:46:52;;;;;;;1.02;0.40;;;21.20;65.30;;;;;;6152009;29;20496;-51
2022/12/31 00:49:54;;;;;;;0.98;0.40;;;21.30;65.30;;;;;;6152828;29;20036;-52
2022/12/31 00:52:55;;;;;;;1.20;0.45;;;21.30;65.30;;;;;;6152076;29;20054;-51
2022/12/31 00:56:00;;;;;;;0.93;0.30;;;21.30;65.30;;;;;;6149787;29;20051;-52
2022/12/31 00:59:01;;;;;;;1.08;0.32;;;21.20;65.20;;;;;;6150682;29;20048;-52
2022/12/31 01:02:02;;;;;;;;;;;21.30;65.20;;;;;;6150064;29;20044;-50
2022/12/31 01:05:05;;;;;;;0.47;0.30;;;21.10;65.30;;;;;;6148471;29;19993;-52
2022/12/31 01:08:07;;;;;;;1.13;0.30;;;21.30;65.10;;;;;;6148111;29;20091;-52
2022/12/31 01:11:18;;;;;;;0.88;0.40;;;21.30;65.10;;;;;;6149111;29;20043;-52
2022/12/31 01:14:19;;;;;;;0.98;0.50;;;21.20;65.10;;;;;;6149688;29;20559;-51
2022/12/31 01:17:21;;;;;;;0.50;0.30;;;21.30;65.10;;;;;;6148365;29;20484;-53
2022/12/31 01:20:22;;;;;;;;;;;21.30;65.10;;;;;;6149784;29;20043;-52
2022/12/31 01:23:23;;;;;;;0.85;0.32;;;21.10;65.00;;;;;;6149761;29;19927;-52
2022/12/31 01:26:27;;;;;;;0.90;0.43;;;21.30;65.00;;;;;;6149159;29;20099;-52
2022/12/31 01:29:28;;;;;;;1.17;0.30;;;21.30;64.90;;;;;;6131574;29;20047;-52
2022/12/31 01:32:30;;;;;;;1.15;0.40;;;21.20;64.80;;;;;;6145134;29;20489;-53
2022/12/31 01:35:33;;;;;;;;;;;21.20;64.80;;;;;;6147042;29;20043;-53
2022/12/31 01:38:35;;;;;;;0.80;0.30;;;21.30;64.80;;;;;;6126318;29;19926;-52
2022/12/31 01:41:40;;;;;;;0.40;0.30;;;21.20;64.70;;;;;;6129299;29;20470;-52
2022/12/31 01:44:51;;;;;;;0.70;0.30;;;21.30;64.70;;;;;;6140141;29;20039;-51
2022/12/31 01:47:56;;;;;;;0.73;0.30;;;21.30;64.60;;;;;;6159082;29;20042;-51
2022/12/31 01:50:58;;;;;;;0.65;0.20;;;21.20;64.50;;;;;;6158690;29;20055;-52
2022/12/31 01:54:02;;;;;;;1.13;0.30;;;21.30;64.50;;;;;;6158319;28;20055;-51
2022/12/31 01:57:06;;;;;;;1.40;0.40;;;21.20;64.40;;;;;;6158118;29;20063;-52
2022/12/31 02:00:09;;;;;;;1.67;0.63;;;21.30;64.50;;;;;;6157508;29;20047;-51
2022/12/31 02:03:11;;;;;;;2.15;0.82;;;21.10;64.40;;;;;;6156970;29;20047;-52
2022/12/31 02:06:19;;;;;;;2.70;0.80;;;21.30;64.50;;;;;;6158272;28;20103;-53
2022/12/31 02:09:21;;;;;;;2.08;0.60;;;21.30;64.50;;;;;;6140617;29;20047;-52
2022/12/31 02:12:23;;;;;;;1.92;0.80;;;21.30;64.50;;;;;;6159393;28;20039;-51
2022/12/31 02:15:33;;;;;;;3.55;1.23;;;21.20;64.50;;;;;;6158424;28;20058;-53
2022/12/31 02:18:42;;;;;;;4.55;1.70;;;21.30;64.70;;;;;;6155959;29;20031;-52
2022/12/31 02:21:53;;;;;;;6.03;2.03;;;21.30;64.80;;;;;;6154613;29;20123;-52
2022/12/31 02:25:21;;;;;;;5.57;2.42;;;21.10;64.80;;;;;;6157642;29;20139;-50
2022/12/31 02:28:49;;;;;;;10.60;2.75;;;21.30;65.10;;;;;;6156166;29;20059;-49
2022/12/31 02:31:56;;;;;;;8.38;2.38;;;21.40;65.30;;;;;;6156905;29;20078;-52
2022/12/31 02:35:04;;;;;;;10.70;2.78;;;21.30;65.30;;;;;;6155970;29;20114;-52
2022/12/31 02:38:12;;;;;;;14.10;3.30;;;21.40;65.40;;;;;;6155724;29;20172;-50
2022/12/31 02:44:29;;;;;;;15.35;4.25;;;21.20;65.50;;;;;;6155975;29;20051;-52
2022/12/31 02:47:45;;;;;;;13.25;4.03;;;21.30;65.60;;;;;;6140530;29;20071;-52
2022/12/31 02:50:55;;;;;;;13.10;4.35;;;21.40;65.80;;;;;;6157173;29;20052;-51
2022/12/31 02:54:16;;;;;;;13.85;4.10;;;21.30;65.70;;;;;;6156260;29;20078;-51
2022/12/31 02:57:25;;;;;;;12.48;3.72;;;21.30;65.70;;;;;;6156749;29;20048;-52
2022/12/31 03:04:30;;;;;;;14.10;3.80;;;21.00;65.40;;;;;;6156025;29;20056;-52
2022/12/31 03:07:11;;;;;;;16.98;3.85;;;21.30;65.50;;;;;;6155508;29;20040;-51
2022/12/31 03:10:13;;;;;;;9.85;3.30;;;21.10;65.30;;;;;;6155067;29;20051;-52
2022/12/31 03:13:14;;;;;;;9.55;3.38;;;21.30;65.30;;;;;;6155402;29;20047;-53
2022/12/31 03:16:16;;;;;;;10.13;2.45;;;21.30;65.20;;;;;;6155890;29;20044;-51
2022/12/31 03:22:36;;;;;;;10.13;2.80;;;21.40;65.10;;;;;;6155838;29;20051;-53
2022/12/31 03:25:38;;;;;;;7.88;2.40;;;21.20;64.80;;;;;;6155130;29;20044;-51
2022/12/31 03:28:40;;;;;;;;;;;21.30;64.80;;;;;;6155231;29;20044;-51
2022/12/31 03:31:41;;;;;;;8.88;2.70;;;21.30;64.80;;;;;;6138080;29;19930;-53
2022/12/31 03:34:43;;;;;;;;;;;21.30;64.70;;;;;;6154967;29;20065;-52
2022/12/31 03:37:45;;;;;;;6.22;2.40;;;21.20;64.50;;;;;;6154346;29;19922;-52
2022/12/31 03:40:49;;;;;;;6.10;2.00;;;21.30;64.40;;;;;;6153917;29;20051;-52
2022/12/31 03:43:51;;;;;;;6.38;1.83;;;21.30;64.30;;;;;;6154702;29;20054;-52
2022/12/31 03:46:52;;;;;;;;;;;21.30;64.10;;;;;;6156045;29;20040;-53
2022/12/31 03:49:54;;;;;;;6.05;1.85;;;21.30;64.10;;;;;;6155599;29;19934;-53
2022/12/31 03:52:56;;;;;;;3.90;1.25;;;21.30;64.00;;;;;;6155615;29;20051;-52
2022/12/31 03:55:57;;;;;;;4.53;1.58;;;21.00;63.60;;;;;;6154651;29;20050;-53
2022/12/31 03:58:59;;;;;;;5.53;1.67;;;21.30;63.70;;;;;;6154386;29;20072;-53
2022/12/31 04:02:01;;;;;;;3.80;1.30;;;21.10;63.30;;;;;;6154500;29;20043;-52
2022/12/31 04:05:03;;;;;;;;;;;21.40;63.40;;;;;;6154993;29;20052;-52
2022/12/31 04:08:04;;;;;;;3.03;1.13;;;21.40;63.30;;;;;;6154371;29;19923;-50
2022/12/31 04:11:06;;;;;;;4.35;1.20;;;21.30;63.20;;;;;;6153838;29;20511;-52
2022/12/31 04:14:07;;;;;;;;;;;21.20;63.00;;;;;;6154922;29;20036;-53
2022/12/31 04:17:09;;;;;;;3.28;0.98;;;21.40;63.00;;;;;;6153633;29;19923;-53
2022/12/31 04:20:11;;;;;;;;;;;21.20;62.80;;;;;;6154872;29;20047;-51
2022/12/31 04:23:12;;;;;;;3.50;1.30;;;21.40;62.80;;;;;;6154824;29;19922;-52
2022/12/31 04:26:14;;;;;;;4.28;1.00;;;21.30;62.70;;;;;;6154824;29;20055;-52
2022/12/31 04:29:15;;;;;;;2.05;0.80;;;21.30;62.50;;;;;;6154331;29;20043;-52
2022/12/31 04:32:17;;;;;;;2.85;1.15;;;21.30;62.30;;;;;;6154187;29;20055;-53
2022/12/31 04:35:19;;;;;;;;;;;21.40;62.20;;;;;;6154278;29;20054;-52
2022/12/31 04:38:20;;;;;;;3.10;1.00;;;21.30;62.10;;;;;;6153305;29;19946;-53
2022/12/31 04:41:22;;;;;;;3.10;1.05;;;21.30;62.00;;;;;;6153626;29;20043;-51
2022/12/31 04:44:24;;;;;;;2.42;1.00;;;21.30;61.90;;;;;;6152029;29;20052;-51
2022/12/31 04:47:25;;;;;;;;;;;21.30;61.70;;;;;;6153165;29;20054;-50
2022/12/31 04:50:27;;;;;;;3.53;1.02;;;21.30;61.70;;;;;;6153213;29;19929;-51
2022/12/31 04:53:29;;;;;;;4.95;1.10;;;21.30;61.60;;;;;;6153513;29;20047;-51
2022/12/31 04:56:31;;;;;;;9.52;1.90;;;21.30;61.40;;;;;;6152732;29;20043;-52
2022/12/31 04:59:33;;;;;;;5.57;1.85;;;21.30;61.30;;;;;;6153188;29;20051;-53
2022/12/31 05:02:34;;;;;;;6.40;1.50;;;21.30;61.10;;;;;;6153084;29;20054;-52
2022/12/31 05:05:38;;;;;;;7.80;2.03;;;21.30;61.10;;;;;;6153169;29;20043;-51
2022/12/31 05:08:40;;;;;;;5.32;1.55;;;21.30;61.00;;;;;;6153266;29;20102;-52
2022/12/31 05:11:41;;;;;;;;;;;21.30;60.80;;;;;;6152031;29;20048;-53
2022/12/31 05:14:42;;;;;;;6.40;1.90;;;21.20;60.80;;;;;;6151371;29;19922;-49
2022/12/31 05:17:44;;;;;;;;;;;21.30;60.80;;;;;;6150884;29;20479;-51
2022/12/31 05:20:46;;;;;;;6.38;1.52;;;21.40;60.80;;;;;;6150537;29;19954;-50
2022/12/31 05:23:48;;;;;;;8.93;2.05;;;21.30;60.70;;;;;;6134390;29;20047;-51
2022/12/31 05:26:49;;;;;;;;;;;21.30;60.60;;;;;;6152076;29;20051;-52
2022/12/31 05:29:51;;;;;;;4.97;1.42;;;21.20;60.50;;;;;;6151127;29;19947;-51
2022/12/31 05:32:52;;;;;;;4.78;1.35;;;21.30;60.60;;;;;;6151418;29;20055;-51
2022/12/31 05:35:57;;;;;;;6.60;1.83;;;21.30;60.40;;;;;;6324754;23;20047;-52
2022/12/31 05:38:58;;;;;;;4.65;1.33;;;21.30;60.30;;;;;;6151347;29;20044;-52
2022/12/31 05:41:59;;;;;;;5.97;1.63;;;21.00;60.10;;;;;;6150153;29;20048;-51
2022/12/31 05:45:01;;;;;;;4.97;1.52;;;21.30;60.20;;;;;;6150843;29;20044;-52
2022/12/31 05:48:02;;;;;;;;;;;21.40;60.20;;;;;;6151791;29;20050;-51
2022/12/31 05:51:05;;;;;;;6.20;1.52;;;21.30;60.10;;;;;;6150732;29;19922;-52
2022/12/31 05:54:06;;;;;;;5.55;1.58;;;21.30;60.10;;;;;;6150886;29;20063;-51
2022/12/31 05:57:08;;;;;;;6.07;1.92;;;21.30;60.00;;;;;;6150884;29;20047;-49
2022/12/31 06:00:10;;;;;;;;;;;21.30;60.00;;;;;;6150348;29;20043;-50
2022/12/31 06:03:19;;;;;;;4.78;1.70;;;21.10;59.90;;;;;;6134765;29;19923;-52
2022/12/31 06:06:21;;;;;;;3.67;1.13;;;21.30;60.00;;;;;;6149917;29;20048;-52
2022/12/31 06:09:22;;;;;;;5.43;1.70;;;21.20;59.90;;;;;;6150733;29;20077;-52
2022/12/31 06:12:24;;;;;;;;;;;21.30;59.90;;;;;;6149880;29;20048;-51
2022/12/31 06:15:25;;;;;;;2.83;1.23;;;21.30;59.90;;;;;;6149744;29;19934;-50
2022/12/31 06:18:27;;;;;;;;;;;21.40;59.90;;;;;;6150653;29;20044;-53
2022/12/31 06:21:29;;;;;;;3.67;1.23;;;21.40;59.90;;;;;;6149752;29;19923;-52
2022/12/31 06:24:30;;;;;;;3.33;1.08;;;21.30;59.80;;;;;;6149713;29;20083;-51
2022/12/31 06:27:31;;;;;;;3.88;1.27;;;21.40;59.80;;;;;;6150320;29;20043;-52
2022/12/31 06:30:33;;;;;;;3.58;1.17;;;21.30;59.60;;;;;;6153718;29;20055;-51
2022/12/31 06:33:34;;;;;;;;;;;21.30;59.50;;;;;;6155496;29;20075;-51
2022/12/31 06:36:36;;;;;;;4.07;1.08;;;21.40;59.60;;;;;;6154387;29;19927;-53
2022/12/31 06:39:38;;;;;;;2.45;0.90;;;21.30;59.50;;;;;;6153349;29;20115;-53
2022/12/31 06:42:41;;;;;;;;;;;21.20;59.30;;;;;;6153799;29;20048;-53
2022/12/31 06:45:42;;;;;;;1.88;0.70;;;21.30;59.40;;;;;;6137958;29;19930;-52
2022/12/31 06:48:44;;;;;;;1.73;0.80;;;21.30;59.30;;;;;;6154117;29;20543;-52
2022/12/31 06:51:46;;;;;;;1.75;0.70;;;21.40;59.30;;;;;;6154354;29;20044;-52
2022/12/31 06:54:48;;;;;;;1.77;0.50;;;21.30;59.20;;;;;;6154051;29;20059;-52
2022/12/31 06:57:50;;;;;;;0.93;0.50;;;21.10;58.90;;;;;;6153401;29;20044;-52
2022/12/31 07:01:00;;;;;;;2.17;1.20;;;21.30;59.00;;;;;;6153359;29;20039;-53
2022/12/31 07:04:20;;;;;;;1.35;0.80;;;21.40;59.00;;;;;;6153284;29;20111;-51
2022/12/31 07:07:29;;;;;;;1.30;0.80;;;21.40;58.90;;;;;;6153649;29;20040;-52
2022/12/31 07:10:40;;;;;;;1.15;0.60;;;21.30;58.90;;;;;;6136910;29;20412;-51
2022/12/31 07:14:00;;;;;;;0.70;0.40;;;21.30;58.80;;;;;;6152862;29;20047;-52
2022/12/31 07:17:17;;;;;;;1.55;0.80;;;21.20;58.70;;;;;;6151842;29;20043;-52
2022/12/31 07:20:19;;;;;;;1.20;0.60;;;21.30;58.80;;;;;;6151759;28;20056;-52
2022/12/31 07:23:22;;;;;;;1.73;0.40;;;21.30;58.70;;;;;;6150649;29;20567;-50
2022/12/31 07:26:34;;;;;;;0.88;0.40;;;21.30;58.70;;;;;;6151991;29;20047;-52
2022/12/31 07:29:50;;;;;;;0.50;0.35;;;21.40;58.70;;;;;;6152849;29;20044;-50
2022/12/31 07:33:13;;;;;;;1.40;0.40;;;21.30;58.60;;;;;;6152810;29;20051;-52
2022/12/31 07:36:26;;;;;;;1.67;0.55;;;21.20;58.50;;;;;;6152284;29;20051;-52
2022/12/31 07:39:38;;;;;;;1.65;0.50;;;21.30;58.50;;;;;;6152466;29;20046;-52
2022/12/31 07:42:54;;;;;;;1.40;0.50;;;21.30;58.50;;;;;;6120343;29;20051;-53
2022/12/31 07:46:06;;;;;;;1.27;0.40;;;21.20;58.40;;;;;;6152479;29;20043;-52
2022/12/31 07:49:10;;;;;;;1.00;0.40;;;21.30;58.40;;;;;;6136345;29;20043;-52
2022/12/31 07:52:12;;;;;;;0.82;0.40;;;21.30;58.40;;;;;;6152681;29;20485;-53
2022/12/31 07:55:14;;;;;;;0.90;0.47;;;21.30;58.30;;;;;;6152588;29;20044;-53
2022/12/31 07:58:21;;;;;;;1.02;0.50;;;21.40;58.30;;;;;;6152388;29;20095;-52
2022/12/31 08:01:32;;;;;;;1.63;0.65;;;21.00;58.00;;;;;;6136001;29;20047;-53
2022/12/31 08:04:43;;;;;;;1.17;0.50;;;21.30;58.10;;;;;;6151665;29;20079;-52
2022/12/31 08:07:52;;;;;;;0.73;0.38;;;21.30;58.00;;;;;;6152220;29;20055;-52
2022/12/31 08:11:05;;;;;;;1.13;0.40;;;21.30;58.00;;;;;;6151972;29;20043;-51
2022/12/31 08:14:11;;;;;;;0.93;0.40;;;21.30;57.90;;;;;;6136475;29;20120;-51
2022/12/31 08:17:14;;;;;;;0.60;0.50;;;21.30;57.90;;;;;;6135775;29;20044;-52
2022/12/31 08:20:17;;;;;;;0.90;0.32;;;21.20;57.70;;;;;;6152176;29;20085;-51
2022/12/31 08:23:26;;;;;;;0.55;0.30;;;21.30;57.80;;;;;;6134657;29;20050;-51
2022/12/31 08:26:36;;;;;;;0.88;0.40;;;21.30;57.60;;;;;;6152285;29;20043;-52
2022/12/31 08:29:45;;;;;;;0.98;0.47;;;21.30;57.60;;;;;;6134504;29;20063;-52
2022/12/31 08:33:04;;;;;;;0.70;0.40;;;21.30;57.40;;;;;;6134322;29;20059;-53
2022/12/31 08:36:16;;;;;;;0.70;0.30;;;21.30;57.40;;;;;;6151132;29;20051;-52
2022/12/31 08:39:31;;;;;;;0.82;0.57;;;21.20;57.20;;;;;;6135670;29;20445;-52
2022/12/31 08:42:42;;;;;;;0.43;0.30;;;21.20;57.00;;;;;;6150887;29;20481;-52
2022/12/31 08:45:48;;;;;;;1.08;0.43;;;21.30;56.90;;;;;;6151881;29;20039;-51
2022/12/31 08:48:49;;;;;;;1.13;0.50;;;21.30;56.90;;;;;;6134923;29;20068;-53
2022/12/31 08:51:51;;;;;;;1.05;0.40;;;21.40;56.80;;;;;;6149016;29;20044;-51
2022/12/31 08:54:53;;;;;;;0.93;0.40;;;21.20;56.50;;;;;;6132363;29;20047;-52
2022/12/31 08:58:10;;;;;;;0.75;0.32;;;21.30;56.50;;;;;;6146677;29;20043;-47
2022/12/31 09:01:14;;;;;;;0.70;0.40;;;21.40;56.30;;;;;;6145473;29;20122;-48
2022/12/31 09:04:24;;;;;;;0.60;0.40;;;21.20;56.20;;;;;;6142106;28;20103;-51
2022/12/31 09:07:34;;;;;;;0.90;0.50;;;20.90;56.00;;;;;;6114883;29;20059;-49
2022/12/31 09:10:44;;;;;;;0.75;0.50;;;21.30;56.10;;;;;;6147765;29;20075;-48
2022/12/31 09:14:06;;;;;;;0.38;0.20;;;21.40;56.10;;;;;;6145281;29;20492;-51
2022/12/31 09:17:24;;;;;;;1.35;0.50;;;21.30;55.90;;;;;;6146878;29;20047;-49
2022/12/31 09:20:28;;;;;;;0.65;0.32;;;21.10;55.70;;;;;;6134096;29;20075;-51
2022/12/31 09:23:44;;;;;;;1.17;0.40;;;21.20;55.70;;;;;;6120607;29;20568;-51
2022/12/31 09:26:56;;;;;;;1.38;0.40;;;21.30;55.60;;;;;;6149046;29;20052;-52
2022/12/31 09:30:03;;;;;;;1.10;0.40;;;21.30;55.40;;;;;;6132374;29;20043;-49
2022/12/31 09:33:10;;;;;;;1.95;0.50;;;21.30;55.30;;;;;;6150429;29;20048;-51
2022/12/31 09:36:18;;;;;;;0.77;0.40;;;21.30;55.20;;;;;;6141107;23;20099;-50
2022/12/31 09:39:29;;;;;;;0.70;0.50;;;21.40;55.20;;;;;;6149293;29;20040;-49
2022/12/31 09:42:56;;;;;;;0.98;0.35;;;21.30;55.10;;;;;;6149959;29;20054;-51
2022/12/31 09:46:20;;;;;;;1.15;0.63;;;21.50;55.10;;;;;;6150846;29;20500;-49
2022/12/31 09:49:47;;;;;;;0.30;0.30;;;21.10;54.80;;;;;;6150585;29;20040;-51
2022/12/31 09:53:03;;;;;;;0.57;0.40;;;21.40;54.90;;;;;;6149955;29;20051;-51
2022/12/31 09:56:11;;;;;;;1.08;0.55;;;21.30;54.80;;;;;;6149266;29;20048;-49
2022/12/31 09:59:21;;;;;;;0.85;0.47;;;21.30;54.70;;;;;;6149760;29;20050;-51
2022/12/31 10:02:42;;;;;;;0.88;0.50;;;21.30;54.60;;;;;;6150712;29;20135;-50
2022/12/31 10:05:56;;;;;;;0.93;0.30;;;21.20;54.50;;;;;;6154041;29;20079;-51
2022/12/31 10:09:22;;;;;;;0.68;0.38;;;21.40;54.60;;;;;;6154630;29;20410;-51
2022/12/31 10:13:00;;;;;;;0.60;0.50;;;21.40;54.50;;;;;;6153653;29;20054;-51
2022/12/31 10:16:15;;;;;;;1.05;0.50;;;21.00;54.20;;;;;;6153427;29;20107;-50
2022/12/31 10:19:41;;;;;;;1.05;0.73;;;21.30;54.40;;;;;;6152986;29;20031;-51
2022/12/31 10:22:57;;;;;;;1.05;0.45;;;21.10;54.20;;;;;;6152922;29;20099;-51
2022/12/31 10:26:20;;;;;;;0.38;0.25;;;21.40;54.30;;;;;;6154161;28;20048;-49
2022/12/31 10:29:31;;;;;;;0.73;0.35;;;21.40;54.30;;;;;;6153653;29;20027;-49
2022/12/31 10:32:42;;;;;;;2.17;0.73;;;21.50;54.30;;;;;;6152932;28;20048;-48
2022/12/31 10:35:49;;;;;;;;;;;21.40;54.20;;;;;;6153725;29;20048;-51
2022/12/31 10:39:02;;;;;;;0.95;0.50;;;21.30;54.20;;;;;;6153546;29;19923;-51
2022/12/31 10:42:35;;;;;;;1.05;0.45;;;21.30;54.30;;;;;;6137180;29;20048;-48
2022/12/31 10:46:07;;;;;;;1.85;0.50;;;21.40;54.20;;;;;;6153209;29;20051;-51
2022/12/31 10:49:37;;;;;;;0.95;0.47;;;21.40;54.20;;;;;;6140902;28;20051;-50
2022/12/31 10:53:08;;;;;;;1.80;0.50;;;21.30;54.20;;;;;;6152686;29;20051;-50
2022/12/31 10:56:34;;;;;;;0.60;0.30;;;21.50;54.30;;;;;;6153387;28;20067;-50
2022/12/31 11:00:00;;;;;;;1.50;0.63;;;21.40;54.30;;;;;;6137848;29;20275;-50
2022/12/31 11:03:37;;;;;;;0.52;0.40;;;21.40;54.40;;;;;;6136718;29;20043;-49
2022/12/31 11:07:05;;;;;;;0.70;0.30;;;21.40;54.40;;;;;;6152348;29;20588;-51
2022/12/31 11:10:35;;;;;;;2.13;0.55;;;21.40;54.50;;;;;;6139812;29;20040;-50
2022/12/31 11:14:01;;;;;;;2.30;0.60;;;21.40;54.50;;;;;;6152523;29;20044;-49
2022/12/31 11:17:21;;;;;;;2.25;0.60;;;21.40;54.60;;;;;;6139861;29;20032;-49
2022/12/31 11:20:38;;;;;;;1.08;0.52;;;21.40;54.60;;;;;;6153606;28;20040;-52
2022/12/31 11:23:50;;;;;;;2.58;0.75;;;21.50;54.60;;;;;;6153580;29;20056;-50
2022/12/31 11:27:06;;;;;;;1.58;0.60;;;21.40;54.60;;;;;;6153058;29;20040;-51
2022/12/31 11:30:20;;;;;;;1.20;0.63;;;21.50;54.70;;;;;;6138114;29;20058;-51
2022/12/31 11:33:34;;;;;;;2.33;0.68;;;21.50;54.70;;;;;;6136433;29;20048;-51
2022/12/31 11:36:43;;;;;;;1.33;0.60;;;21.60;54.80;;;;;;6159532;23;20051;-52
2022/12/31 11:39:48;;;;;;;2.50;0.88;;;21.60;54.70;;;;;;6152541;29;20051;-51
2022/12/31 11:42:57;;;;;;;2.20;1.00;;;21.50;54.70;;;;;;6152376;29;20043;-50
2022/12/31 11:46:18;;;;;;;1.70;0.80;;;21.40;54.60;;;;;;6151408;29;20054;-50
2022/12/31 11:49:37;;;;;;;2.88;0.73;;;21.60;54.70;;;;;;6153112;29;20032;-51
2022/12/31 11:52:50;;;;;;;1.20;0.65;;;21.60;54.60;;;;;;6152543;29;20068;-49
2022/12/31 11:56:02;;;;;;;2.85;0.60;;;21.60;54.50;;;;;;6148931;29;20055;-50
2022/12/31 11:59:10;;;;;;;3.20;0.98;;;21.60;54.50;;;;;;6149312;29;20043;-50
2022/12/31 12:02:25;;;;;;;2.33;0.88;;;21.70;54.50;;;;;;6147803;29;20067;-51
2022/12/31 12:05:28;;;;;;;2.38;0.73;;;21.60;54.30;;;;;;6148378;29;20111;-49
2022/12/31 12:08:31;;;;;;;2.03;0.63;;;21.60;54.30;;;;;;6149775;29;20052;-51
2022/12/31 12:11:37;;;;;;;1.98;1.10;;;21.60;54.60;;;;;;6149095;29;20044;-51
2022/12/31 12:14:42;;;;;;;2.22;0.80;;;21.70;54.10;;;;;;6147719;29;20055;-51
2022/12/31 12:17:48;;;;;;;2.80;0.80;;;21.70;54.00;;;;;;6146526;29;20039;-50
2022/12/31 12:20:50;;;;;;;3.10;0.93;;;21.70;53.80;;;;;;6148678;29;20503;-51
2022/12/31 12:23:54;;;;;;;2.60;0.60;;;21.60;53.70;;;;;;6143859;29;20039;-50
2022/12/31 12:26:56;;;;;;;2.05;0.68;;;21.70;53.60;;;;;;6145153;29;20048;-49
2022/12/31 12:30:08;;;;;;;2.15;0.70;;;21.70;53.50;;;;;;6147360;29;20036;-51
2022/12/31 12:33:16;;;;;;;2.15;0.80;;;21.70;53.20;;;;;;6148760;29;20055;-51
2022/12/31 12:36:20;;;;;;;2.10;0.82;;;21.90;53.30;;;;;;6172438;23;20060;-51
2022/12/31 12:39:24;;;;;;;2.88;0.75;;;21.60;53.00;;;;;;6151886;29;20051;-51
2022/12/31 12:42:26;;;;;;;1.52;0.68;;;21.80;53.00;;;;;;6152512;29;20048;-50
2022/12/31 12:45:38;;;;;;;0.88;0.40;;;21.70;52.70;;;;;;6151982;29;20051;-51
2022/12/31 12:48:42;;;;;;;2.45;0.80;;;21.70;52.50;;;;;;6150229;29;20051;-51
2022/12/31 12:51:57;;;;;;;2.80;0.65;;;21.70;52.50;;;;;;6148566;29;20044;-52
2022/12/31 12:55:09;;;;;;;2.45;0.73;;;21.60;52.20;;;;;;6150034;29;20043;-51
2022/12/31 12:58:25;;;;;;;1.30;0.65;;;21.70;52.10;;;;;;6148770;29;20047;-50
2022/12/31 13:01:36;;;;;;;1.63;0.50;;;21.80;52.00;;;;;;6149709;29;20044;-51
2022/12/31 13:04:52;;;;;;;1.95;0.60;;;21.50;51.60;;;;;;6150479;29;20404;-50
2022/12/31 13:08:04;;;;;;;1.40;0.60;;;21.70;51.50;;;;;;6149843;29;20054;-51
2022/12/31 13:11:21;;;;;;;1.60;0.70;;;21.80;51.40;;;;;;6149854;29;20048;-51
2022/12/31 13:14:30;;;;;;;1.65;0.70;;;21.80;51.20;;;;;;6149494;29;20047;-51
2022/12/31 13:17:51;;;;;;;2.10;0.90;;;21.70;51.00;;;;;;6149307;29;20437;-51
2022/12/31 13:21:06;;;;;;;1.40;0.80;;;21.80;50.70;;;;;;6149238;29;20043;-51
2022/12/31 13:24:21;;;;;;;1.83;0.60;;;21.80;50.60;;;;;;6148601;29;20056;-51
2022/12/31 13:27:27;;;;;;;1.58;0.82;;;21.70;50.30;;;;;;6148431;29;20054;-51
2022/12/31 13:30:34;;;;;;;1.88;0.82;;;21.90;50.30;;;;;;6149124;29;20079;-51
2022/12/31 13:36:44;;;;;;;1.38;0.75;;;21.70;49.60;;;;;;6123593;29;20048;-48
2022/12/31 13:39:46;;;;;;;2.15;0.88;;;21.70;49.40;;;;;;6097154;29;20048;-50
2022/12/31 13:42:53;;;;;;;1.88;0.63;;;21.70;49.20;;;;;;6128708;29;20048;-51
2022/12/31 13:46:07;;;;;;;1.30;0.50;;;21.80;48.90;;;;;;6128656;29;20044;-51
2022/12/31 13:49:17;;;;;;;0.90;0.60;;;21.70;48.60;;;;;;6128362;29;20067;-51
2022/12/31 13:52:29;;;;;;;2.17;0.60;;;21.80;48.50;;;;;;6129240;29;20059;-51
2022/12/31 13:55:36;;;;;;;2.47;1.20;;;21.80;48.30;;;;;;6112288;29;20040;-51
2022/12/31 13:58:45;;;;;;;2.38;0.70;;;21.70;48.10;;;;;;6112435;29;20048;-51
2022/12/31 14:01:51;;;;;;;1.75;0.88;;;21.70;47.90;;;;;;6128204;29;20036;-50
2022/12/31 14:04:58;;;;;;;2.08;0.82;;;21.80;47.80;;;;;;6111390;29;20052;-51
2022/12/31 14:08:01;;;;;;;3.65;0.60;;;21.70;47.60;;;;;;6112057;29;20052;-51
2022/12/31 14:11:13;;;;;;;1.40;0.80;;;21.80;47.50;;;;;;6111504;29;20491;-51
2022/12/31 14:14:25;;;;;;;3.15;0.88;;;21.60;47.20;;;;;;6128511;29;20060;-49
2022/12/31 14:17:35;;;;;;;2.28;0.80;;;21.80;47.10;;;;;;6129231;29;20051;-51
2022/12/31 14:20:46;;;;;;;2.15;1.02;;;21.80;47.00;;;;;;6128863;29;20036;-51
2022/12/31 14:23:53;;;;;;;1.60;0.80;;;21.80;46.90;;;;;;6097794;29;20048;-49
2022/12/31 14:26:58;;;;;;;2.15;0.82;;;21.80;46.80;;;;;;6129330;29;20071;-51
2022/12/31 14:30:03;;;;;;;1.80;0.70;;;21.80;46.70;;;;;;6128374;29;20052;-51
2022/12/31 14:33:25;;;;;;;2.25;0.80;;;21.80;46.60;;;;;;6128921;29;20048;-51
2022/12/31 14:36:38;;;;;;;2.13;0.90;;;21.80;46.30;;;;;;6158615;23;20051;-51
2022/12/31 14:39:50;;;;;;;2.28;1.00;;;21.70;46.20;;;;;;6153678;29;20054;-48
2022/12/31 14:43:12;;;;;;;1.10;0.60;;;21.70;46.10;;;;;;6153708;29;20044;-49
2022/12/31 14:46:24;;;;;;;2.38;0.80;;;21.70;46.00;;;;;;6153011;29;20031;-48
2022/12/31 14:49:38;;;;;;;1.80;0.82;;;21.70;46.00;;;;;;6151379;29;20044;-50
2022/12/31 14:52:51;;;;;;;2.95;1.20;;;21.70;46.00;;;;;;6153832;29;20039;-51
2022/12/31 14:55:58;;;;;;;3.35;0.82;;;21.60;45.80;;;;;;6153156;29;20043;-50
2022/12/31 14:59:01;;;;;;;1.83;0.70;;;21.70;45.80;;;;;;6153162;29;20103;-50
2022/12/31 15:02:18;;;;;;;2.10;0.60;;;21.80;45.90;;;;;;6152815;29;20031;-50
2022/12/31 15:05:22;;;;;;;2.40;0.65;;;21.70;45.80;;;;;;6152263;29;20052;-50
2022/12/31 15:08:38;;;;;;;1.98;1.05;;;21.70;45.70;;;;;;6152658;29;20083;-50
2022/12/31 15:11:58;;;;;;;1.63;0.77;;;21.80;45.70;;;;;;6153915;29;20054;-49
2022/12/31 15:15:15;;;;;;;1.83;1.00;;;21.80;45.70;;;;;;6153300;29;20048;-51
2022/12/31 15:18:34;;;;;;;2.83;0.60;;;21.80;45.70;;;;;;6152920;29;20054;-49
2022/12/31 15:21:50;;;;;;;2.72;0.70;;;21.70;45.60;;;;;;6151912;29;20055;-51
2022/12/31 15:24:52;;;;;;;2.75;0.70;;;21.80;45.70;;;;;;6152427;28;20058;-51
2022/12/31 15:27:55;;;;;;;1.52;0.60;;;21.80;45.70;;;;;;6153148;29;20047;-51
2022/12/31 15:31:05;;;;;;;2.78;0.80;;;21.70;45.60;;;;;;6151753;29;20420;-50
2022/12/31 15:34:24;;;;;;;2.65;0.98;;;21.70;45.60;;;;;;6158265;23;20103;-50
2022/12/31 15:37:29;;;;;;;2.88;0.90;;;21.80;45.60;;;;;;6152608;29;20044;-50
2022/12/31 15:40:43;;;;;;;1.58;0.80;;;21.70;45.60;;;;;;6150595;29;20052;-50
2022/12/31 15:43:48;;;;;;;3.58;0.90;;;21.70;45.50;;;;;;6151406;29;20058;-51
2022/12/31 15:46:55;;;;;;;3.08;0.88;;;21.70;45.50;;;;;;6151175;29;20044;-51
2022/12/31 15:49:58;;;;;;;3.35;0.93;;;21.70;45.50;;;;;;6151600;29;20103;-50
2022/12/31 15:53:03;;;;;;;4.03;0.90;;;21.60;45.40;;;;;;6151243;29;20071;-50
2022/12/31 15:56:11;;;;;;;2.38;1.05;;;21.70;45.40;;;;;;6150333;29;20054;-50
2022/12/31 15:59:15;;;;;;;1.23;0.77;;;21.60;45.90;;;;;;6150790;29;20050;-49
2022/12/31 16:02:22;;;;;;;2.28;0.60;;;21.70;45.40;;;;;;6151199;29;20048;-51
2022/12/31 16:05:26;;;;;;;2.35;0.75;;;21.60;45.30;;;;;;6152260;29;20075;-50
2022/12/31 16:08:31;;;;;;;1.60;0.73;;;21.60;45.20;;;;;;6152240;29;20059;-51
2022/12/31 16:11:36;;;;;;;1.85;0.75;;;21.70;45.30;;;;;;6152224;29;20040;-51
2022/12/31 16:14:41;;;;;;;3.25;1.08;;;21.70;45.20;;;;;;6151845;29;20054;-51
2022/12/31 16:17:44;;;;;;;2.17;1.23;;;21.70;45.20;;;;;;6150130;29;20054;-51
2022/12/31 16:20:47;;;;;;;1.83;0.68;;;21.60;45.10;;;;;;6150670;29;20024;-50
2022/12/31 16:23:50;;;;;;;1.95;0.90;;;21.70;45.20;;;;;;6150997;29;20415;-51
2022/12/31 16:26:55;;;;;;;1.63;0.98;;;21.70;45.10;;;;;;6151860;29;20048;-51
2022/12/31 16:29:59;;;;;;;2.28;0.80;;;21.70;45.10;;;;;;6151640;29;20043;-51
2022/12/31 16:33:04;;;;;;;1.55;0.77;;;21.70;45.10;;;;;;6150325;29;20059;-51
2022/12/31 16:36:15;;;;;;;1.58;0.88;;;21.60;45.00;;;;;;6145396;23;20054;-50
2022/12/31 16:39:27;;;;;;;2.58;0.98;;;21.70;45.00;;;;;;6134890;29;20071;-51